createdAt,value
2018-11-06T00:01:44.818Z,158.97
2018-11-06T00:04:14.317Z,167.00
2018-11-06T00:06:43.829Z,164.47
2018-11-06T00:09:13.323Z,176.47
2018-11-06T00:11:42.686Z,165.90
2018-11-06T00:14:12.140Z,150.67
2018-11-06T00:16:42.835Z,182.87
2018-11-06T00:19:12.370Z,167.23
2018-11-06T00:21:41.886Z,146.67
2018-11-06T00:24:11.652Z,176.70
2018-11-06T00:26:41.105Z,159.57
2018-11-06T00:29:10.498Z,147.40
2018-11-06T00:31:39.929Z,143.57
2018-11-06T00:34:09.630Z,165.67
2018-11-06T00:36:40.008Z,154.37
2018-11-06T00:39:10.029Z,159.07
2018-11-06T00:41:39.976Z,140.20
2018-11-06T00:44:09.575Z,140.00
2018-11-06T00:46:39.016Z,150.10
2018-11-06T00:49:08.500Z,151.17
2018-11-06T00:51:38.106Z,145.17
2018-11-06T00:54:08.394Z,146.37
2018-11-06T00:56:37.867Z,150.90
2018-11-06T00:59:07.424Z,152.87
2018-11-06T01:01:36.837Z,147.00
2018-11-06T01:04:10.049Z,138.47
2018-11-06T01:06:39.526Z,156.67
2018-11-06T01:09:12.521Z,134.47
2018-11-06T01:11:43.088Z,149.57
2018-11-06T01:14:12.605Z,153.53
2018-11-06T01:18:11.358Z,141.60
2018-11-06T01:20:41.405Z,137.40
2018-11-06T01:23:10.942Z,140.17
2018-11-06T01:25:40.557Z,150.30
2018-11-06T01:28:09.978Z,152.23
2018-11-06T01:30:39.481Z,141.83
2018-11-06T01:33:09.063Z,134.80
2018-11-06T01:35:38.387Z,140.33
2018-11-06T01:38:07.744Z,134.53
2018-11-06T01:40:37.378Z,140.23
2018-11-06T01:43:06.813Z,134.90
2018-11-06T01:45:36.181Z,148.00
2018-11-06T01:48:05.807Z,129.97
2018-11-06T01:50:35.204Z,139.77
2018-11-06T01:53:04.775Z,145.07
2018-11-06T01:55:34.218Z,138.80
2018-11-06T01:58:03.576Z,143.73
2018-11-06T02:00:32.929Z,127.27
2018-11-06T02:03:02.426Z,135.17
2018-11-06T02:05:31.743Z,138.40
2018-11-06T02:08:01.096Z,140.85
2018-11-06T02:10:30.534Z,147.93
2018-11-06T02:12:59.987Z,135.30
2018-11-06T02:15:35.895Z,133.13
2018-11-06T02:18:05.820Z,137.80
2018-11-06T02:20:35.273Z,137.97
2018-11-06T02:23:05.951Z,119.40
2018-11-06T02:25:35.314Z,125.40
2018-11-06T02:28:04.681Z,131.25
2018-11-06T02:30:34.209Z,118.07
2018-11-06T02:33:03.591Z,135.13
2018-11-06T02:35:33.013Z,127.72
2018-11-06T02:38:02.639Z,138.10
2018-11-06T02:40:32.018Z,131.50
2018-11-06T02:43:01.401Z,140.27
2018-11-06T02:45:30.986Z,126.67
2018-11-06T02:48:00.363Z,122.83
2018-11-06T02:50:29.791Z,137.43
2018-11-06T02:52:59.301Z,126.57
2018-11-06T02:55:28.746Z,137.73
2018-11-06T02:57:58.152Z,138.27
2018-11-06T03:00:27.835Z,121.70
2018-11-06T03:02:57.328Z,123.57
2018-11-06T03:05:26.764Z,132.53
2018-11-06T03:07:56.182Z,132.10
2018-11-06T03:10:25.586Z,131.13
2018-11-06T03:12:54.878Z,121.17
2018-11-06T03:15:24.456Z,123.97
2018-11-06T03:17:53.867Z,129.37
2018-11-06T03:20:23.308Z,117.30
2018-11-06T03:22:52.746Z,132.50
2018-11-06T03:25:22.207Z,125.70
2018-11-06T03:27:51.590Z,125.65
2018-11-06T03:30:21.161Z,125.50
2018-11-06T03:32:50.563Z,122.27
2018-11-06T03:35:19.918Z,118.10
2018-11-06T03:37:49.295Z,104.27
2018-11-06T03:40:18.671Z,123.40
2018-11-06T03:42:48.095Z,111.70
2018-11-06T03:45:18.985Z,122.80
2018-11-06T03:47:48.372Z,117.97
2018-11-06T03:51:47.213Z,113.77
2018-11-06T03:54:16.745Z,124.82
2018-11-06T03:56:46.121Z,126.78
2018-11-06T03:59:15.518Z,119.97
2018-11-06T04:01:44.800Z,118.00
2018-11-06T04:04:14.241Z,116.05
2018-11-06T04:06:43.937Z,116.73
2018-11-06T04:09:13.875Z,120.67
2018-11-06T04:11:43.312Z,114.37
2018-11-06T04:14:12.761Z,138.12
2018-11-06T04:16:42.183Z,118.30
2018-11-06T04:19:11.731Z,114.07
2018-11-06T04:21:42.036Z,114.32
2018-11-06T04:24:13.700Z,118.20
2018-11-06T04:26:43.984Z,112.28
2018-11-06T04:29:13.433Z,107.90
2018-11-06T04:31:42.919Z,110.78
2018-11-06T04:34:12.526Z,103.60
2018-11-06T04:36:41.951Z,116.43
2018-11-06T04:39:11.969Z,112.07
2018-11-06T04:41:41.419Z,118.75
2018-11-06T04:44:10.989Z,128.93
2018-11-06T04:46:40.564Z,124.17
2018-11-06T04:49:10.579Z,128.07
2018-11-06T04:51:41.122Z,129.90
2018-11-06T04:54:10.533Z,143.85
2018-11-06T04:56:40.776Z,125.83
2018-11-06T04:59:10.182Z,132.17
2018-11-06T05:01:39.691Z,147.32
2018-11-06T05:04:09.897Z,129.13
2018-11-06T05:06:39.314Z,155.73
2018-11-06T05:09:09.644Z,143.30
2018-11-06T05:11:39.327Z,133.23
2018-11-06T05:14:09.462Z,143.47
2018-11-06T05:16:38.959Z,159.10
2018-11-06T05:19:08.404Z,130.27
2018-11-06T05:21:37.851Z,161.53
2018-11-06T05:24:07.299Z,137.90
2018-11-06T05:26:36.750Z,129.87
2018-11-06T05:29:06.173Z,145.40
2018-11-06T05:31:35.575Z,107.97
2018-11-06T05:34:06.475Z,102.27
2018-11-06T05:36:35.867Z,125.45
2018-11-06T05:39:09.461Z,106.22
2018-11-06T05:41:38.924Z,138.97
2018-11-06T05:44:08.479Z,131.78
2018-11-06T05:46:38.013Z,126.33
2018-11-06T05:49:07.584Z,115.20
2018-11-06T05:51:37.385Z,128.53
2018-11-06T05:54:12.024Z,107.05
2018-11-06T05:56:41.522Z,123.38
2018-11-06T05:59:10.877Z,127.95
2018-11-06T06:01:40.346Z,107.72
2018-11-06T06:04:09.822Z,116.75
2018-11-06T06:06:44.806Z,121.05
2018-11-06T06:09:14.268Z,99.70
2018-11-06T06:11:43.954Z,126.45
2018-11-06T06:14:13.594Z,120.35
2018-11-06T06:16:44.610Z,104.47
2018-11-06T06:19:14.519Z,107.25
2018-11-06T06:21:45.000Z,110.52
2018-11-06T06:24:14.417Z,87.53
2018-11-06T06:26:43.838Z,127.92
2018-11-06T06:29:13.404Z,115.17
2018-11-06T06:31:44.065Z,97.72
2018-11-06T06:34:13.763Z,92.57
2018-11-06T06:36:43.583Z,92.15
2018-11-06T06:39:13.089Z,109.55
2018-11-06T06:41:42.784Z,77.10
2018-11-06T06:44:12.236Z,150.25
2018-11-06T06:46:41.873Z,91.65
2018-11-06T06:49:11.404Z,85.80
2018-11-06T06:51:40.881Z,75.30
2018-11-06T06:54:10.385Z,100.78
2018-11-06T06:56:39.744Z,107.30
2018-11-06T06:59:09.163Z,84.92
2018-11-06T07:01:38.566Z,84.17
2018-11-06T07:04:08.046Z,103.65
2018-11-06T07:06:37.837Z,85.65
2018-11-06T07:09:09.437Z,90.62
2018-11-06T07:11:39.786Z,82.17
2018-11-06T07:14:11.244Z,85.50
2018-11-06T07:16:42.902Z,96.78
2018-11-06T07:19:14.362Z,92.75
2018-11-06T07:21:45.800Z,113.15
2018-11-06T07:24:17.666Z,70.40
2018-11-06T07:26:49.417Z,78.00
2018-11-06T07:29:21.302Z,77.27
2018-11-06T07:31:53.855Z,79.10
2018-11-06T07:34:24.866Z,84.90
2018-11-06T07:36:56.560Z,73.25
2018-11-06T07:39:27.449Z,68.78
2018-11-06T07:41:59.253Z,75.30
2018-11-06T07:44:31.425Z,92.90
2018-11-06T07:47:03.859Z,88.60
2018-11-06T07:49:35.099Z,71.82
2018-11-06T07:52:07.581Z,88.33
2018-11-06T07:54:38.420Z,87.88
2018-11-06T07:57:10.995Z,95.57
2018-11-06T07:59:43.186Z,86.60
2018-11-06T08:02:15.463Z,58.80
2018-11-06T08:04:46.353Z,108.15
2018-11-06T08:07:17.739Z,163.50
2018-11-06T08:09:49.387Z,101.95
2018-11-06T08:12:22.008Z,70.20
2018-11-06T08:14:54.503Z,83.50
2018-11-06T08:17:26.231Z,104.20
2018-11-06T08:19:57.884Z,84.77
2018-11-06T08:22:29.732Z,74.00
2018-11-06T08:25:01.516Z,141.47
2018-11-06T08:27:33.467Z,114.45
2018-11-06T08:30:05.176Z,79.95
2018-11-06T08:32:37.204Z,65.28
2018-11-06T08:35:10.542Z,67.97
2018-11-06T08:37:42.079Z,74.35
2018-11-06T08:40:14.416Z,57.88
2018-11-06T08:42:46.183Z,89.67
2018-11-06T08:45:18.829Z,57.70
2018-11-06T08:47:50.647Z,59.75
2018-11-06T08:50:21.785Z,69.92
2018-11-06T08:52:51.250Z,90.85
2018-11-06T08:55:20.883Z,70.20
2018-11-06T08:57:54.680Z,72.72
2018-11-06T09:00:24.120Z,60.63
2018-11-06T09:02:53.520Z,67.47
2018-11-06T09:05:22.983Z,58.45
2018-11-06T09:07:52.503Z,56.92
2018-11-06T09:10:21.878Z,53.68
2018-11-06T09:12:51.308Z,62.15
2018-11-06T09:15:20.768Z,45.90
2018-11-06T09:17:50.113Z,60.78
2018-11-06T09:20:19.678Z,52.27
2018-11-06T09:22:49.021Z,43.78
2018-11-06T09:25:19.529Z,50.90
2018-11-06T09:27:50.624Z,45.65
2018-11-06T09:30:20.500Z,47.20
2018-11-06T09:32:49.919Z,57.10
2018-11-06T09:35:19.322Z,42.43
2018-11-06T09:37:49.446Z,59.00
2018-11-06T09:40:19.910Z,50.83
2018-11-06T09:42:49.270Z,60.57
2018-11-06T09:45:19.298Z,47.77
2018-11-06T09:47:48.785Z,50.20
2018-11-06T09:50:19.532Z,60.03
2018-11-06T09:52:49.054Z,51.17
2018-11-06T09:55:19.007Z,47.53
2018-11-06T09:57:48.495Z,56.47
2018-11-06T10:00:20.096Z,57.37
2018-11-06T10:02:49.745Z,52.07
2018-11-06T10:05:19.102Z,54.30
2018-11-06T10:07:52.680Z,49.17
2018-11-06T10:10:22.214Z,90.50
2018-11-06T10:12:51.610Z,45.27
2018-11-06T10:15:21.775Z,54.77
2018-11-06T10:17:51.675Z,55.77
2018-11-06T10:20:21.797Z,59.10
2018-11-06T10:22:51.279Z,57.60
2018-11-06T10:25:20.673Z,54.03
2018-11-06T10:27:50.207Z,49.33
2018-11-06T10:30:20.432Z,47.87
2018-11-06T10:32:49.767Z,51.43
2018-11-06T10:35:19.373Z,47.10
2018-11-06T10:37:49.898Z,49.17
2018-11-06T10:40:21.772Z,57.47
2018-11-06T10:42:51.444Z,63.57
2018-11-06T10:45:21.215Z,58.13
2018-11-06T10:47:50.660Z,46.60
2018-11-06T10:50:20.163Z,48.03
2018-11-06T10:52:49.871Z,47.10
2018-11-06T10:55:19.549Z,60.93
2018-11-06T10:57:48.990Z,55.17
2018-11-06T11:00:24.664Z,50.63
2018-11-06T11:02:59.592Z,63.53
2018-11-06T11:05:30.393Z,57.10
2018-11-06T11:11:05.791Z,49.20
2018-11-06T11:13:35.357Z,54.33
2018-11-06T11:16:06.915Z,54.90
2018-11-06T11:18:36.520Z,53.37
2018-11-06T11:21:06.381Z,53.30
2018-11-06T11:23:36.089Z,53.87
2018-11-06T11:26:05.641Z,61.63
2018-11-06T11:28:35.464Z,57.40
2018-11-06T11:31:05.701Z,64.50
2018-11-06T11:33:35.236Z,60.07
2018-11-06T11:36:04.722Z,58.50
2018-11-06T11:38:34.345Z,59.63
2018-11-06T11:41:04.864Z,57.63
2018-11-06T11:43:34.631Z,59.07
2018-11-06T11:46:04.620Z,68.40
2018-11-06T11:48:34.087Z,64.60
2018-11-06T11:51:03.531Z,71.83
2018-11-06T11:53:33.126Z,62.20
2018-11-06T11:56:02.686Z,68.93
2018-11-06T11:58:32.250Z,66.73
2018-11-06T12:01:01.962Z,64.57
2018-11-06T12:03:31.486Z,63.97
2018-11-06T12:06:00.909Z,62.03
2018-11-06T12:08:31.081Z,70.57
2018-11-06T12:11:03.926Z,66.57
2018-11-06T12:13:33.818Z,61.30
2018-11-06T12:16:03.279Z,67.23
2018-11-06T12:18:32.756Z,65.70
2018-11-06T12:21:02.455Z,60.83
2018-11-06T12:23:31.841Z,72.20
2018-11-06T12:26:02.327Z,64.40
2018-11-06T12:28:31.799Z,62.43
2018-11-06T12:31:01.224Z,58.87
2018-11-06T12:33:30.941Z,62.50
2018-11-06T12:36:01.850Z,66.30
2018-11-06T12:38:31.379Z,60.53
2018-11-06T12:41:00.944Z,92.87
2018-11-06T12:43:30.785Z,60.73
2018-11-06T12:46:00.054Z,61.10
2018-11-06T12:48:29.543Z,61.07
2018-11-06T12:51:01.170Z,71.33
2018-11-06T12:53:30.946Z,77.93
2018-11-06T12:56:00.480Z,70.20
2018-11-06T12:58:30.094Z,72.60
2018-11-06T13:01:00.548Z,62.07
2018-11-06T13:03:30.088Z,64.03
2018-11-06T13:05:59.676Z,65.83
2018-11-06T13:08:29.284Z,73.60
2018-11-06T13:10:58.871Z,69.93
2018-11-06T13:13:28.288Z,75.80
2018-11-06T13:15:57.650Z,70.97
2018-11-06T13:18:28.247Z,71.10
2018-11-06T13:20:57.778Z,60.57
2018-11-06T13:26:17.145Z,65.50
2018-11-06T13:28:46.511Z,70.47
2018-11-06T13:31:15.859Z,65.67
2018-11-06T13:33:45.530Z,66.17
2018-11-06T13:36:14.958Z,67.33
2018-11-06T13:38:44.542Z,60.23
2018-11-06T13:41:14.362Z,69.93
2018-11-06T13:43:47.050Z,60.20
2018-11-06T13:46:16.462Z,70.63
2018-11-06T13:48:45.955Z,59.57
2018-11-06T13:51:15.871Z,55.07
2018-11-06T13:53:45.753Z,67.93
2018-11-06T13:56:15.607Z,71.77
2018-11-06T13:58:45.180Z,62.43
2018-11-06T14:01:14.711Z,72.47
2018-11-06T14:03:44.285Z,66.70
2018-11-06T14:06:19.700Z,73.07
2018-11-06T14:08:49.300Z,68.70
2018-11-06T14:11:18.902Z,65.87
2018-11-06T14:13:49.189Z,66.30
2018-11-06T14:16:20.715Z,75.83
2018-11-06T14:18:50.280Z,60.73
2018-11-06T14:21:19.733Z,68.50
2018-11-06T14:23:49.170Z,74.93
2018-11-06T14:26:18.826Z,67.00
2018-11-06T14:28:48.242Z,74.43
2018-11-06T14:31:17.837Z,69.27
2018-11-06T14:33:53.088Z,70.60
2018-11-06T14:36:22.855Z,79.37
2018-11-06T14:38:52.391Z,77.10
2018-11-06T14:41:21.885Z,62.97
2018-11-06T14:43:51.266Z,63.30
2018-11-06T14:46:23.730Z,62.83
2018-11-06T14:48:53.383Z,71.13
2018-11-06T14:51:23.748Z,77.50
2018-11-06T14:53:53.311Z,72.53
2018-11-06T14:56:22.878Z,85.00
2018-11-06T14:58:58.880Z,81.23
2018-11-06T15:01:28.764Z,90.97
2018-11-06T15:03:58.255Z,94.20
2018-11-06T15:06:29.027Z,88.43
2018-11-06T15:08:58.437Z,95.50
2018-11-06T15:11:28.040Z,95.87
2018-11-06T15:13:58.189Z,82.77
2018-11-06T15:16:30.990Z,96.93
2018-11-06T15:19:00.909Z,101.23
2018-11-06T15:21:30.466Z,93.10
2018-11-06T15:24:00.084Z,99.27
2018-11-06T15:26:30.053Z,105.33
2018-11-06T15:28:59.505Z,110.40
2018-11-06T15:31:29.132Z,120.37
2018-11-06T15:33:58.774Z,105.87
2018-11-06T15:36:28.519Z,115.90
2018-11-06T15:38:58.148Z,106.77
2018-11-06T15:41:28.721Z,105.07
2018-11-06T15:43:58.218Z,103.10
2018-11-06T15:49:05.788Z,125.27
2018-11-06T15:51:36.315Z,137.70
2018-11-06T15:54:06.352Z,128.43
2018-11-06T15:56:36.084Z,123.17
2018-11-06T15:59:06.149Z,123.27
2018-11-06T16:01:36.325Z,122.90
2018-11-06T16:04:05.819Z,104.07
2018-11-06T16:06:35.740Z,120.53
2018-11-06T16:09:07.099Z,116.43
2018-11-06T16:11:37.788Z,119.53
2018-11-06T16:14:07.342Z,118.30
2018-11-06T16:16:37.013Z,106.23
2018-11-06T16:19:07.493Z,112.47
2018-11-06T16:21:37.076Z,120.03
2018-11-06T16:24:06.755Z,121.10
2018-11-06T16:26:37.359Z,126.37
2018-11-06T16:29:07.131Z,118.90
2018-11-06T16:31:36.677Z,141.10
2018-11-06T16:34:07.155Z,138.90
2018-11-06T16:36:37.608Z,128.00
2018-11-06T16:39:09.989Z,111.17
2018-11-06T16:41:41.211Z,121.57
2018-11-06T16:44:10.718Z,126.53
2018-11-06T16:46:40.297Z,137.73
2018-11-06T16:49:09.780Z,135.70
2018-11-06T16:51:39.289Z,122.73
2018-11-06T16:54:09.144Z,114.77
2018-11-06T16:56:38.691Z,148.43
2018-11-06T16:59:08.631Z,121.57
2018-11-06T17:01:38.152Z,155.73
2018-11-06T17:04:07.841Z,128.60
2018-11-06T17:06:42.765Z,131.93
2018-11-06T17:09:12.708Z,156.20
2018-11-06T17:11:42.109Z,143.10
2018-11-06T17:14:11.532Z,199.10
2018-11-06T17:16:40.982Z,123.10
2018-11-06T17:19:11.774Z,153.20
2018-11-06T17:21:41.893Z,155.43
2018-11-06T17:24:11.549Z,123.20
2018-11-06T17:26:40.926Z,113.00
2018-11-06T17:29:10.464Z,96.93
2018-11-06T17:31:40.570Z,101.70
2018-11-06T17:34:11.840Z,95.80
2018-11-06T17:36:41.655Z,115.20
2018-11-06T17:39:14.363Z,114.17
2018-11-06T17:41:44.332Z,120.63
2018-11-06T17:44:14.076Z,111.67
2018-11-06T17:46:44.918Z,102.13
2018-11-06T17:49:14.481Z,118.90
2018-11-06T17:51:43.968Z,120.80
2018-11-06T17:54:13.564Z,128.47
2018-11-06T17:56:43.035Z,127.70
2018-11-06T17:59:12.342Z,118.33
2018-11-06T18:01:42.544Z,106.67
2018-11-06T18:04:12.038Z,111.60
2018-11-06T18:06:41.324Z,99.67
2018-11-06T18:09:12.596Z,108.03
2018-11-06T18:11:42.293Z,100.13
2018-11-06T18:14:11.714Z,100.57
2018-11-06T18:16:41.571Z,103.23
2018-11-06T18:19:11.134Z,99.83
2018-11-06T18:21:40.882Z,105.07
2018-11-06T18:24:10.523Z,102.03
2018-11-06T18:26:39.855Z,113.50
2018-11-06T18:29:09.286Z,99.67
2018-11-06T18:31:38.726Z,116.17
2018-11-06T18:34:08.143Z,107.00
2018-11-06T18:36:37.622Z,134.77
2018-11-06T18:39:10.219Z,115.92
2018-11-06T18:41:39.755Z,84.70
2018-11-06T18:44:11.778Z,97.87
2018-11-06T18:46:41.209Z,87.37
2018-11-06T18:49:10.618Z,84.33
2018-11-06T18:51:40.784Z,93.97
2018-11-06T18:54:10.283Z,89.67
2018-11-06T18:56:39.945Z,81.50
2018-11-06T18:59:09.409Z,78.57
2018-11-06T19:01:39.757Z,78.03
2018-11-06T19:04:09.406Z,69.90
2018-11-06T19:06:39.595Z,72.25
2018-11-06T19:09:11.110Z,74.92
2018-11-06T19:11:41.734Z,74.30
2018-11-06T19:14:11.654Z,85.20
2018-11-06T19:16:41.274Z,77.00
2018-11-06T19:19:10.756Z,73.42
2018-11-06T19:21:40.174Z,96.17
2018-11-06T19:24:10.197Z,75.87
2018-11-06T19:26:39.874Z,76.22
2018-11-06T19:29:11.556Z,83.23
2018-11-06T19:31:40.998Z,73.50
2018-11-06T19:34:10.466Z,74.20
2018-11-06T19:36:41.410Z,77.03
2018-11-06T19:39:14.702Z,72.40
2018-11-06T19:41:44.161Z,66.80
2018-11-06T19:44:13.606Z,73.73
2018-11-06T19:46:45.319Z,68.53
2018-11-06T19:49:15.113Z,76.60
2018-11-06T19:51:44.832Z,76.63
2018-11-06T19:54:14.982Z,79.87
2018-11-06T19:56:45.605Z,70.03
2018-11-06T19:59:18.885Z,68.80
2018-11-06T20:04:54.917Z,82.45
2018-11-06T20:07:24.442Z,73.07
2018-11-06T20:09:54.234Z,79.43
2018-11-06T20:12:32.050Z,73.37
2018-11-06T20:15:06.349Z,66.82
2018-11-06T20:17:36.109Z,72.17
2018-11-06T20:20:08.648Z,77.20
2018-11-06T20:22:41.218Z,68.20
2018-11-06T20:25:12.341Z,63.23
2018-11-06T20:27:42.965Z,62.50
2018-11-06T20:30:16.358Z,67.67
2018-11-06T20:32:46.658Z,68.23
2018-11-06T20:35:18.037Z,82.00
2018-11-06T20:37:55.763Z,57.60
2018-11-06T20:40:27.164Z,62.47
2018-11-06T20:42:57.129Z,59.43
2018-11-06T20:45:26.720Z,70.97
2018-11-06T20:47:58.719Z,69.70
2018-11-06T20:50:28.336Z,69.77
2018-11-06T20:52:58.596Z,64.97
2018-11-06T20:55:28.585Z,67.95
2018-11-06T20:57:58.306Z,65.87
2018-11-06T21:00:31.282Z,66.53
2018-11-06T21:03:02.825Z,68.60
2018-11-06T21:05:32.563Z,63.40
2018-11-06T21:08:02.067Z,65.17
2018-11-06T21:10:32.832Z,63.20
2018-11-06T21:13:02.682Z,75.17
2018-11-06T21:15:32.197Z,68.80
2018-11-06T21:18:01.791Z,63.30
2018-11-06T21:20:31.609Z,69.30
2018-11-06T21:23:01.266Z,68.77
2018-11-06T21:25:31.653Z,67.00
2018-11-06T21:28:01.100Z,66.30
2018-11-06T21:30:30.566Z,70.03
2018-11-06T21:33:00.479Z,70.23
2018-11-06T21:35:30.042Z,75.17
2018-11-06T21:37:59.574Z,71.80
2018-11-06T21:41:33.915Z,63.60
2018-11-06T21:44:03.518Z,61.40
2018-11-06T21:46:33.149Z,66.67
2018-11-06T21:49:03.404Z,70.47
2018-11-06T21:51:32.765Z,80.65
2018-11-06T21:54:02.184Z,84.50
2018-11-06T21:56:31.570Z,75.43
2018-11-06T21:59:01.190Z,72.47
2018-11-06T22:01:30.752Z,73.78
2018-11-06T22:04:00.196Z,72.23
2018-11-06T22:06:29.802Z,79.35
2018-11-06T22:08:59.302Z,73.42
2018-11-06T22:11:29.212Z,81.95
2018-11-06T22:13:58.699Z,74.70
2018-11-06T22:16:28.110Z,76.55
2018-11-06T22:18:57.771Z,86.03
2018-11-06T22:21:27.223Z,70.92
2018-11-06T22:23:58.149Z,72.53
2018-11-06T22:26:27.784Z,76.07
2018-11-06T22:28:57.200Z,79.07
2018-11-06T22:31:27.625Z,75.60
2018-11-06T22:33:56.958Z,70.63
2018-11-06T22:36:26.659Z,72.20
2018-11-06T22:38:56.075Z,79.43
2018-11-06T22:41:25.523Z,76.03
2018-11-06T22:43:55.256Z,66.63
2018-11-06T22:46:26.279Z,79.27
2018-11-06T22:48:55.671Z,73.70
2018-11-06T22:51:25.177Z,74.93
2018-11-06T22:53:55.267Z,84.03
2018-11-06T22:56:24.768Z,70.67
2018-11-06T22:58:54.239Z,73.03
2018-11-06T23:01:24.621Z,64.73
2018-11-06T23:03:54.882Z,73.33
2018-11-06T23:06:24.697Z,71.47
2018-11-06T23:08:54.008Z,77.40
2018-11-06T23:11:23.324Z,80.73
2018-11-06T23:13:52.719Z,73.47
2018-11-06T23:16:22.088Z,71.00
2018-11-06T23:18:51.513Z,72.78
2018-11-06T23:21:20.922Z,78.33
2018-11-06T23:23:50.373Z,71.93
2018-11-06T23:26:19.780Z,71.67
2018-11-06T23:28:49.405Z,76.82
2018-11-06T23:31:18.850Z,83.60
2018-11-06T23:33:48.232Z,64.50
2018-11-06T23:36:18.008Z,73.25
2018-11-06T23:38:47.362Z,77.40
2018-11-06T23:41:16.761Z,82.63
2018-11-06T23:43:46.208Z,82.07
2018-11-06T23:46:15.667Z,78.43
2018-11-06T23:48:45.086Z,77.10
2018-11-06T23:51:14.718Z,82.78
2018-11-06T23:53:44.226Z,76.65
2018-11-06T23:56:13.779Z,73.40
2018-11-06T23:58:43.171Z,78.78
